sensor_id;sensor_type;location;lat;lon;timestamp;P1;durP1;ratioP1;P2;durP2;ratioP2
6614;SDS011;3343;42.896;23.912;2023-03-31T00:01:05;2.60;;;1.83;;
6614;SDS011;3343;42.896;23.912;2023-03-31T00:03:32;2.37;;;1.70;;
6614;SDS011;3343;42.896;23.912;2023-03-31T00:06:03;2.10;;;1.70;;
6614;SDS011;3343;42.896;23.912;2023-03-31T00:08:30;2.47;;;1.53;;
6614;SDS011;3343;42.896;23.912;2023-03-31T00:11:01;1.97;;;1.70;;
6614;SDS011;3343;42.896;23.912;2023-03-31T00:13:30;2.77;;;1.40;;
6614;SDS011;3343;42.896;23.912;2023-03-31T00:15:57;2.27;;;1.57;;
6614;SDS011;3343;42.896;23.912;2023-03-31T00:18:26;2.63;;;1.97;;
6614;SDS011;3343;42.896;23.912;2023-03-31T00:20:54;1.53;;;1.40;;
6614;SDS011;3343;42.896;23.912;2023-03-31T00:23:26;2.77;;;1.40;;
6614;SDS011;3343;42.896;23.912;2023-03-31T00:25:53;1.43;;;1.33;;
6614;SDS011;3343;42.896;23.912;2023-03-31T00:28:20;1.63;;;1.43;;
6614;SDS011;3343;42.896;23.912;2023-03-31T00:30:49;2.20;;;1.63;;
6614;SDS011;3343;42.896;23.912;2023-03-31T00:33:17;2.13;;;1.70;;
6614;SDS011;3343;42.896;23.912;2023-03-31T00:35:43;1.60;;;1.50;;
6614;SDS011;3343;42.896;23.912;2023-03-31T00:38:10;2.23;;;1.70;;
6614;SDS011;3343;42.896;23.912;2023-03-31T00:40:43;1.83;;;1.50;;
6614;SDS011;3343;42.896;23.912;2023-03-31T00:43:18;1.83;;;1.40;;
6614;SDS011;3343;42.896;23.912;2023-03-31T00:45:54;2.87;;;1.83;;
6614;SDS011;3343;42.896;23.912;2023-03-31T00:48:26;2.03;;;1.50;;
6614;SDS011;3343;42.896;23.912;2023-03-31T00:50:53;1.67;;;1.50;;
6614;SDS011;3343;42.896;23.912;2023-03-31T00:53:23;1.67;;;1.57;;
6614;SDS011;3343;42.896;23.912;2023-03-31T00:55:56;5.07;;;2.03;;
6614;SDS011;3343;42.896;23.912;2023-03-31T00:58:27;3.87;;;2.10;;
6614;SDS011;3343;42.896;23.912;2023-03-31T01:00:59;4.20;;;1.93;;
6614;SDS011;3343;42.896;23.912;2023-03-31T01:03:29;4.50;;;1.60;;
6614;SDS011;3343;42.896;23.912;2023-03-31T01:05:59;2.93;;;1.43;;
6614;SDS011;3343;42.896;23.912;2023-03-31T01:08:29;2.57;;;1.97;;
6614;SDS011;3343;42.896;23.912;2023-03-31T01:11:01;3.83;;;1.80;;
6614;SDS011;3343;42.896;23.912;2023-03-31T01:13:31;2.57;;;1.70;;
6614;SDS011;3343;42.896;23.912;2023-03-31T01:16:02;3.67;;;2.10;;
6614;SDS011;3343;42.896;23.912;2023-03-31T01:18:29;3.47;;;1.83;;
6614;SDS011;3343;42.896;23.912;2023-03-31T01:30:33;2.50;;;1.53;;
6614;SDS011;3343;42.896;23.912;2023-03-31T01:36:40;3.40;;;2.30;;
6614;SDS011;3343;42.896;23.912;2023-03-31T01:39:59;3.50;;;1.73;;
6614;SDS011;3343;42.896;23.912;2023-03-31T01:42:43;2.33;;;1.70;;
6614;SDS011;3343;42.896;23.912;2023-03-31T01:45:21;4.13;;;1.97;;
6614;SDS011;3343;42.896;23.912;2023-03-31T01:48:00;2.13;;;1.77;;
6614;SDS011;3343;42.896;23.912;2023-03-31T01:50:34;5.30;;;1.70;;
6614;SDS011;3343;42.896;23.912;2023-03-31T01:53:04;2.80;;;1.90;;
6614;SDS011;3343;42.896;23.912;2023-03-31T01:55:41;3.33;;;1.90;;
6614;SDS011;3343;42.896;23.912;2023-03-31T01:58:14;1.70;;;1.57;;
6614;SDS011;3343;42.896;23.912;2023-03-31T02:00:46;2.70;;;1.70;;
6614;SDS011;3343;42.896;23.912;2023-03-31T02:03:21;2.03;;;1.50;;
6614;SDS011;3343;42.896;23.912;2023-03-31T02:05:54;12.03;;;3.83;;
6614;SDS011;3343;42.896;23.912;2023-03-31T02:08:24;4.37;;;1.80;;
6614;SDS011;3343;42.896;23.912;2023-03-31T02:10:56;1.60;;;1.50;;
6614;SDS011;3343;42.896;23.912;2023-03-31T02:13:25;2.30;;;1.70;;
6614;SDS011;3343;42.896;23.912;2023-03-31T02:15:55;3.53;;;2.13;;
6614;SDS011;3343;42.896;23.912;2023-03-31T02:18:26;4.33;;;2.00;;
6614;SDS011;3343;42.896;23.912;2023-03-31T02:20:57;4.10;;;1.83;;
6614;SDS011;3343;42.896;23.912;2023-03-31T02:23:27;6.03;;;2.50;;
6614;SDS011;3343;42.896;23.912;2023-03-31T02:25:58;3.77;;;2.57;;
6614;SDS011;3343;42.896;23.912;2023-03-31T02:28:28;3.53;;;1.93;;
6614;SDS011;3343;42.896;23.912;2023-03-31T02:30:59;1.67;;;1.57;;
6614;SDS011;3343;42.896;23.912;2023-03-31T02:33:33;3.87;;;2.00;;
6614;SDS011;3343;42.896;23.912;2023-03-31T02:36:00;3.13;;;2.10;;
6614;SDS011;3343;42.896;23.912;2023-03-31T02:38:29;2.77;;;1.80;;
6614;SDS011;3343;42.896;23.912;2023-03-31T02:41:02;2.73;;;1.70;;
6614;SDS011;3343;42.896;23.912;2023-03-31T02:43:29;2.70;;;2.07;;
6614;SDS011;3343;42.896;23.912;2023-03-31T02:45:56;3.63;;;1.80;;
6614;SDS011;3343;42.896;23.912;2023-03-31T02:48:24;3.93;;;2.10;;
6614;SDS011;3343;42.896;23.912;2023-03-31T02:54:02;2.33;;;1.70;;
6614;SDS011;3343;42.896;23.912;2023-03-31T02:56:48;2.07;;;1.70;;
6614;SDS011;3343;42.896;23.912;2023-03-31T02:59:37;4.20;;;1.90;;
6614;SDS011;3343;42.896;23.912;2023-03-31T03:02:16;3.97;;;2.40;;
6614;SDS011;3343;42.896;23.912;2023-03-31T03:04:56;2.07;;;1.87;;
6614;SDS011;3343;42.896;23.912;2023-03-31T03:07:37;3.63;;;2.33;;
6614;SDS011;3343;42.896;23.912;2023-03-31T03:10:13;2.23;;;1.70;;
6614;SDS011;3343;42.896;23.912;2023-03-31T03:12:49;4.23;;;2.30;;
6614;SDS011;3343;42.896;23.912;2023-03-31T03:15:23;14.57;;;6.30;;
6614;SDS011;3343;42.896;23.912;2023-03-31T03:17:53;19.73;;;7.40;;
6614;SDS011;3343;42.896;23.912;2023-03-31T03:20:21;11.47;;;4.93;;
6614;SDS011;3343;42.896;23.912;2023-03-31T03:22:48;6.20;;;3.30;;
6614;SDS011;3343;42.896;23.912;2023-03-31T03:25:15;7.13;;;3.47;;
6614;SDS011;3343;42.896;23.912;2023-03-31T03:27:45;4.20;;;2.93;;
6614;SDS011;3343;42.896;23.912;2023-03-31T03:30:13;5.23;;;2.93;;
6614;SDS011;3343;42.896;23.912;2023-03-31T03:32:40;4.60;;;2.33;;
6614;SDS011;3343;42.896;23.912;2023-03-31T03:35:07;6.63;;;2.70;;
6614;SDS011;3343;42.896;23.912;2023-03-31T03:37:34;3.37;;;2.63;;
6614;SDS011;3343;42.896;23.912;2023-03-31T03:40:02;4.17;;;2.70;;
6614;SDS011;3343;42.896;23.912;2023-03-31T03:42:30;7.00;;;3.17;;
6614;SDS011;3343;42.896;23.912;2023-03-31T03:44:56;9.47;;;5.20;;
6614;SDS011;3343;42.896;23.912;2023-03-31T03:47:25;8.87;;;3.03;;
6614;SDS011;3343;42.896;23.912;2023-03-31T03:49:52;9.13;;;4.10;;
6614;SDS011;3343;42.896;23.912;2023-03-31T03:52:19;7.80;;;3.77;;
6614;SDS011;3343;42.896;23.912;2023-03-31T03:54:46;7.37;;;4.07;;
6614;SDS011;3343;42.896;23.912;2023-03-31T03:57:13;6.70;;;4.83;;
6614;SDS011;3343;42.896;23.912;2023-03-31T03:59:40;5.80;;;3.70;;
6614;SDS011;3343;42.896;23.912;2023-03-31T04:02:07;7.13;;;4.50;;
6614;SDS011;3343;42.896;23.912;2023-03-31T04:04:35;6.17;;;4.33;;
6614;SDS011;3343;42.896;23.912;2023-03-31T04:07:02;7.60;;;4.40;;
6614;SDS011;3343;42.896;23.912;2023-03-31T04:09:29;6.60;;;4.33;;
6614;SDS011;3343;42.896;23.912;2023-03-31T04:11:56;9.33;;;5.37;;
6614;SDS011;3343;42.896;23.912;2023-03-31T04:14:23;6.63;;;4.17;;
6614;SDS011;3343;42.896;23.912;2023-03-31T04:16:50;4.90;;;3.23;;
6614;SDS011;3343;42.896;23.912;2023-03-31T04:19:20;5.23;;;3.30;;
6614;SDS011;3343;42.896;23.912;2023-03-31T04:21:51;6.77;;;2.70;;
6614;SDS011;3343;42.896;23.912;2023-03-31T04:24:26;2.07;;;1.83;;
6614;SDS011;3343;42.896;23.912;2023-03-31T04:26:57;3.80;;;2.10;;
6614;SDS011;3343;42.896;23.912;2023-03-31T04:29:24;3.40;;;2.37;;
6614;SDS011;3343;42.896;23.912;2023-03-31T04:31:52;2.57;;;2.20;;
6614;SDS011;3343;42.896;23.912;2023-03-31T04:34:23;2.40;;;1.93;;
6614;SDS011;3343;42.896;23.912;2023-03-31T04:37:00;4.03;;;2.17;;
6614;SDS011;3343;42.896;23.912;2023-03-31T04:39:28;4.03;;;2.17;;
6614;SDS011;3343;42.896;23.912;2023-03-31T04:41:56;2.93;;;2.10;;
6614;SDS011;3343;42.896;23.912;2023-03-31T04:44:23;4.40;;;3.20;;
6614;SDS011;3343;42.896;23.912;2023-03-31T04:46:51;2.77;;;2.23;;
6614;SDS011;3343;42.896;23.912;2023-03-31T04:49:18;3.70;;;2.27;;
6614;SDS011;3343;42.896;23.912;2023-03-31T04:51:45;2.77;;;2.10;;
6614;SDS011;3343;42.896;23.912;2023-03-31T04:54:13;6.00;;;3.87;;
6614;SDS011;3343;42.896;23.912;2023-03-31T04:56:40;9.60;;;3.73;;
6614;SDS011;3343;42.896;23.912;2023-03-31T04:59:07;4.67;;;4.07;;
6614;SDS011;3343;42.896;23.912;2023-03-31T05:01:34;5.93;;;4.47;;
6614;SDS011;3343;42.896;23.912;2023-03-31T05:04:01;6.13;;;4.30;;
6614;SDS011;3343;42.896;23.912;2023-03-31T05:06:29;4.43;;;3.43;;
6614;SDS011;3343;42.896;23.912;2023-03-31T05:08:56;9.57;;;3.67;;
6614;SDS011;3343;42.896;23.912;2023-03-31T05:11:24;5.93;;;3.20;;
6614;SDS011;3343;42.896;23.912;2023-03-31T05:13:51;8.37;;;3.77;;
6614;SDS011;3343;42.896;23.912;2023-03-31T05:16:18;5.97;;;2.40;;
6614;SDS011;3343;42.896;23.912;2023-03-31T05:18:45;3.17;;;2.10;;
6614;SDS011;3343;42.896;23.912;2023-03-31T05:21:12;3.10;;;2.27;;
6614;SDS011;3343;42.896;23.912;2023-03-31T05:23:41;3.20;;;2.40;;
6614;SDS011;3343;42.896;23.912;2023-03-31T05:26:07;3.30;;;2.27;;
6614;SDS011;3343;42.896;23.912;2023-03-31T05:28:36;2.60;;;2.03;;
6614;SDS011;3343;42.896;23.912;2023-03-31T05:31:03;3.37;;;2.17;;
6614;SDS011;3343;42.896;23.912;2023-03-31T05:33:31;3.33;;;2.13;;
6614;SDS011;3343;42.896;23.912;2023-03-31T05:35:58;3.30;;;2.10;;
6614;SDS011;3343;42.896;23.912;2023-03-31T05:38:25;2.73;;;2.00;;
6614;SDS011;3343;42.896;23.912;2023-03-31T05:40:55;21.20;;;9.60;;
6614;SDS011;3343;42.896;23.912;2023-03-31T05:43:22;15.00;;;8.07;;
6614;SDS011;3343;42.896;23.912;2023-03-31T05:45:50;18.37;;;9.97;;
6614;SDS011;3343;42.896;23.912;2023-03-31T05:48:18;16.97;;;9.03;;
6614;SDS011;3343;42.896;23.912;2023-03-31T05:50:45;10.63;;;5.70;;
6614;SDS011;3343;42.896;23.912;2023-03-31T05:53:12;11.17;;;6.80;;
6614;SDS011;3343;42.896;23.912;2023-03-31T05:55:39;14.67;;;8.40;;
6614;SDS011;3343;42.896;23.912;2023-03-31T05:58:06;18.83;;;11.83;;
6614;SDS011;3343;42.896;23.912;2023-03-31T06:00:34;9.50;;;7.00;;
6614;SDS011;3343;42.896;23.912;2023-03-31T06:03:03;7.50;;;3.70;;
6614;SDS011;3343;42.896;23.912;2023-03-31T06:05:32;5.27;;;3.00;;
6614;SDS011;3343;42.896;23.912;2023-03-31T06:07:59;4.43;;;3.00;;
6614;SDS011;3343;42.896;23.912;2023-03-31T06:10:26;3.43;;;2.93;;
6614;SDS011;3343;42.896;23.912;2023-03-31T06:12:53;2.17;;;1.70;;
6614;SDS011;3343;42.896;23.912;2023-03-31T06:15:20;2.67;;;1.90;;
6614;SDS011;3343;42.896;23.912;2023-03-31T06:17:47;4.93;;;2.33;;
6614;SDS011;3343;42.896;23.912;2023-03-31T06:20:15;2.87;;;2.13;;
6614;SDS011;3343;42.896;23.912;2023-03-31T06:22:42;3.93;;;2.30;;
6614;SDS011;3343;42.896;23.912;2023-03-31T06:25:09;3.77;;;2.23;;
6614;SDS011;3343;42.896;23.912;2023-03-31T06:27:36;6.47;;;5.00;;
6614;SDS011;3343;42.896;23.912;2023-03-31T06:30:03;15.33;;;5.80;;
6614;SDS011;3343;42.896;23.912;2023-03-31T06:32:30;13.23;;;7.90;;
6614;SDS011;3343;42.896;23.912;2023-03-31T06:34:57;13.20;;;7.70;;
6614;SDS011;3343;42.896;23.912;2023-03-31T06:37:25;13.73;;;7.07;;
6614;SDS011;3343;42.896;23.912;2023-03-31T06:39:52;11.60;;;7.23;;
6614;SDS011;3343;42.896;23.912;2023-03-31T06:42:19;8.57;;;4.63;;
6614;SDS011;3343;42.896;23.912;2023-03-31T06:44:46;8.13;;;4.70;;
6614;SDS011;3343;42.896;23.912;2023-03-31T06:47:12;8.13;;;3.90;;
6614;SDS011;3343;42.896;23.912;2023-03-31T06:49:39;11.60;;;4.80;;
6614;SDS011;3343;42.896;23.912;2023-03-31T06:52:06;9.70;;;4.70;;
6614;SDS011;3343;42.896;23.912;2023-03-31T06:54:34;7.70;;;3.90;;
6614;SDS011;3343;42.896;23.912;2023-03-31T06:57:01;7.00;;;3.83;;
6614;SDS011;3343;42.896;23.912;2023-03-31T06:59:28;8.03;;;3.77;;
6614;SDS011;3343;42.896;23.912;2023-03-31T07:01:55;6.83;;;3.77;;
6614;SDS011;3343;42.896;23.912;2023-03-31T07:04:22;7.20;;;3.87;;
6614;SDS011;3343;42.896;23.912;2023-03-31T07:06:49;6.07;;;3.10;;
6614;SDS011;3343;42.896;23.912;2023-03-31T07:09:16;4.10;;;3.00;;
6614;SDS011;3343;42.896;23.912;2023-03-31T07:11:47;6.30;;;3.13;;
6614;SDS011;3343;42.896;23.912;2023-03-31T07:14:13;8.77;;;5.07;;
6614;SDS011;3343;42.896;23.912;2023-03-31T07:16:40;6.20;;;3.07;;
6614;SDS011;3343;42.896;23.912;2023-03-31T07:19:07;4.60;;;3.20;;
6614;SDS011;3343;42.896;23.912;2023-03-31T07:21:35;10.03;;;4.33;;
6614;SDS011;3343;42.896;23.912;2023-03-31T07:24:02;11.10;;;5.27;;
6614;SDS011;3343;42.896;23.912;2023-03-31T07:26:29;12.60;;;5.90;;
6614;SDS011;3343;42.896;23.912;2023-03-31T07:28:57;9.10;;;5.70;;
6614;SDS011;3343;42.896;23.912;2023-03-31T07:31:24;9.60;;;4.27;;
6614;SDS011;3343;42.896;23.912;2023-03-31T07:33:51;7.03;;;3.60;;
6614;SDS011;3343;42.896;23.912;2023-03-31T07:36:18;11.37;;;4.57;;
6614;SDS011;3343;42.896;23.912;2023-03-31T07:38:45;8.00;;;3.60;;
6614;SDS011;3343;42.896;23.912;2023-03-31T07:41:14;7.80;;;3.73;;
6614;SDS011;3343;42.896;23.912;2023-03-31T07:43:42;8.33;;;4.63;;
6614;SDS011;3343;42.896;23.912;2023-03-31T07:46:15;7.93;;;4.07;;
6614;SDS011;3343;42.896;23.912;2023-03-31T07:48:43;5.83;;;3.73;;
6614;SDS011;3343;42.896;23.912;2023-03-31T07:51:11;6.07;;;3.80;;
6614;SDS011;3343;42.896;23.912;2023-03-31T07:53:38;5.67;;;3.53;;
6614;SDS011;3343;42.896;23.912;2023-03-31T07:56:05;11.57;;;4.87;;
6614;SDS011;3343;42.896;23.912;2023-03-31T07:58:32;8.60;;;4.50;;
6614;SDS011;3343;42.896;23.912;2023-03-31T08:00:59;7.47;;;4.03;;
6614;SDS011;3343;42.896;23.912;2023-03-31T08:03:27;8.10;;;3.77;;
6614;SDS011;3343;42.896;23.912;2023-03-31T08:05:56;7.40;;;3.30;;
6614;SDS011;3343;42.896;23.912;2023-03-31T08:08:23;5.07;;;3.70;;
6614;SDS011;3343;42.896;23.912;2023-03-31T08:10:50;7.03;;;3.90;;
6614;SDS011;3343;42.896;23.912;2023-03-31T08:13:17;5.53;;;3.30;;
6614;SDS011;3343;42.896;23.912;2023-03-31T08:15:44;5.73;;;2.67;;
6614;SDS011;3343;42.896;23.912;2023-03-31T08:18:11;7.63;;;3.70;;
6614;SDS011;3343;42.896;23.912;2023-03-31T08:20:39;5.30;;;3.33;;
6614;SDS011;3343;42.896;23.912;2023-03-31T08:23:06;3.33;;;2.67;;
6614;SDS011;3343;42.896;23.912;2023-03-31T08:25:35;4.20;;;2.57;;
6614;SDS011;3343;42.896;23.912;2023-03-31T08:28:02;3.13;;;2.73;;
6614;SDS011;3343;42.896;23.912;2023-03-31T08:30:31;4.10;;;2.87;;
6614;SDS011;3343;42.896;23.912;2023-03-31T08:32:57;7.20;;;2.73;;
6614;SDS011;3343;42.896;23.912;2023-03-31T08:35:24;3.00;;;2.57;;
6614;SDS011;3343;42.896;23.912;2023-03-31T08:37:53;4.60;;;2.73;;
6614;SDS011;3343;42.896;23.912;2023-03-31T08:40:20;4.83;;;2.50;;
6614;SDS011;3343;42.896;23.912;2023-03-31T08:42:50;3.43;;;2.50;;
6614;SDS011;3343;42.896;23.912;2023-03-31T08:45:21;4.07;;;2.60;;
6614;SDS011;3343;42.896;23.912;2023-03-31T08:47:51;3.87;;;2.37;;
6614;SDS011;3343;42.896;23.912;2023-03-31T08:50:24;4.90;;;2.33;;
6614;SDS011;3343;42.896;23.912;2023-03-31T08:52:55;8.03;;;2.63;;
6614;SDS011;3343;42.896;23.912;2023-03-31T08:55:30;3.77;;;2.90;;
6614;SDS011;3343;42.896;23.912;2023-03-31T08:58:02;2.33;;;1.80;;
6614;SDS011;3343;42.896;23.912;2023-03-31T09:00:37;3.80;;;2.50;;
6614;SDS011;3343;42.896;23.912;2023-03-31T09:03:10;3.07;;;2.13;;
6614;SDS011;3343;42.896;23.912;2023-03-31T09:05:45;3.60;;;2.37;;
6614;SDS011;3343;42.896;23.912;2023-03-31T09:08:29;3.03;;;2.00;;
6614;SDS011;3343;42.896;23.912;2023-03-31T09:11:00;3.45;;;2.40;;
6614;SDS011;3343;42.896;23.912;2023-03-31T09:13:41;3.08;;;2.15;;
6614;SDS011;3343;42.896;23.912;2023-03-31T09:16:26;4.15;;;2.05;;
6614;SDS011;3343;42.896;23.912;2023-03-31T09:18:59;2.30;;;1.95;;
6614;SDS011;3343;42.896;23.912;2023-03-31T09:21:27;4.40;;;1.80;;
6614;SDS011;3343;42.896;23.912;2023-03-31T09:24:01;2.70;;;1.83;;
6614;SDS011;3343;42.896;23.912;2023-03-31T09:26:33;2.28;;;1.98;;
6614;SDS011;3343;42.896;23.912;2023-03-31T09:29:06;5.93;;;1.75;;
6614;SDS011;3343;42.896;23.912;2023-03-31T09:31:44;2.23;;;1.83;;
6614;SDS011;3343;42.896;23.912;2023-03-31T09:34:12;3.00;;;1.57;;
6614;SDS011;3343;42.896;23.912;2023-03-31T09:36:41;2.90;;;1.73;;
6614;SDS011;3343;42.896;23.912;2023-03-31T09:39:12;3.70;;;2.00;;
6614;SDS011;3343;42.896;23.912;2023-03-31T09:41:41;3.13;;;2.10;;
6614;SDS011;3343;42.896;23.912;2023-03-31T09:44:13;3.33;;;2.00;;
6614;SDS011;3343;42.896;23.912;2023-03-31T09:46:53;2.33;;;2.10;;
6614;SDS011;3343;42.896;23.912;2023-03-31T09:49:20;4.57;;;2.00;;
6614;SDS011;3343;42.896;23.912;2023-03-31T09:51:53;2.60;;;2.00;;
6614;SDS011;3343;42.896;23.912;2023-03-31T09:54:32;3.13;;;1.90;;
6614;SDS011;3343;42.896;23.912;2023-03-31T09:57:01;3.00;;;2.00;;
6614;SDS011;3343;42.896;23.912;2023-03-31T09:59:30;3.05;;;1.90;;
6614;SDS011;3343;42.896;23.912;2023-03-31T10:01:59;1.92;;;1.60;;
6614;SDS011;3343;42.896;23.912;2023-03-31T10:04:29;1.95;;;1.65;;
6614;SDS011;3343;42.896;23.912;2023-03-31T10:06:59;2.55;;;1.50;;
6614;SDS011;3343;42.896;23.912;2023-03-31T10:09:31;3.80;;;1.90;;
6614;SDS011;3343;42.896;23.912;2023-03-31T10:12:01;3.10;;;2.00;;
6614;SDS011;3343;42.896;23.912;2023-03-31T10:14:37;4.97;;;1.90;;
6614;SDS011;3343;42.896;23.912;2023-03-31T10:17:06;2.73;;;1.70;;
6614;SDS011;3343;42.896;23.912;2023-03-31T10:19:33;3.80;;;1.70;;
6614;SDS011;3343;42.896;23.912;2023-03-31T10:22:02;1.90;;;1.50;;
6614;SDS011;3343;42.896;23.912;2023-03-31T10:24:39;2.50;;;1.60;;
6614;SDS011;3343;42.896;23.912;2023-03-31T10:27:12;6.40;;;1.70;;
6614;SDS011;3343;42.896;23.912;2023-03-31T10:29:46;2.00;;;1.48;;
6614;SDS011;3343;42.896;23.912;2023-03-31T10:32:15;3.30;;;2.13;;
6614;SDS011;3343;42.896;23.912;2023-03-31T10:34:47;2.58;;;1.75;;
6614;SDS011;3343;42.896;23.912;2023-03-31T10:37:15;4.13;;;1.77;;
6614;SDS011;3343;42.896;23.912;2023-03-31T10:39:46;1.77;;;1.40;;
6614;SDS011;3343;42.896;23.912;2023-03-31T10:42:18;2.83;;;1.60;;
6614;SDS011;3343;42.896;23.912;2023-03-31T10:44:47;2.65;;;1.40;;
6614;SDS011;3343;42.896;23.912;2023-03-31T10:47:16;1.70;;;1.52;;
6614;SDS011;3343;42.896;23.912;2023-03-31T10:49:47;5.90;;;1.60;;
6614;SDS011;3343;42.896;23.912;2023-03-31T10:52:16;3.90;;;1.58;;
6614;SDS011;3343;42.896;23.912;2023-03-31T10:54:47;5.30;;;1.50;;
6614;SDS011;3343;42.896;23.912;2023-03-31T10:57:16;2.35;;;1.52;;
6614;SDS011;3343;42.896;23.912;2023-03-31T10:59:58;4.18;;;1.58;;
6614;SDS011;3343;42.896;23.912;2023-03-31T11:05:34;2.80;;;1.55;;
6614;SDS011;3343;42.896;23.912;2023-03-31T11:08:12;2.05;;;1.35;;
6614;SDS011;3343;42.896;23.912;2023-03-31T11:13:47;3.13;;;1.50;;
6614;SDS011;3343;42.896;23.912;2023-03-31T11:16:23;3.83;;;1.30;;
6614;SDS011;3343;42.896;23.912;2023-03-31T11:19:08;6.35;;;1.40;;
6614;SDS011;3343;42.896;23.912;2023-03-31T11:21:47;1.52;;;1.38;;
6614;SDS011;3343;42.896;23.912;2023-03-31T11:24:29;5.32;;;1.08;;
6614;SDS011;3343;42.896;23.912;2023-03-31T11:27:18;1.75;;;1.60;;
6614;SDS011;3343;42.896;23.912;2023-03-31T11:29:58;1.90;;;1.48;;
6614;SDS011;3343;42.896;23.912;2023-03-31T11:32:35;1.98;;;1.20;;
6614;SDS011;3343;42.896;23.912;2023-03-31T11:35:17;2.47;;;1.48;;
6614;SDS011;3343;42.896;23.912;2023-03-31T11:38:01;4.93;;;1.65;;
6614;SDS011;3343;42.896;23.912;2023-03-31T11:40:47;5.60;;;1.35;;
6614;SDS011;3343;42.896;23.912;2023-03-31T11:43:25;7.55;;;1.45;;
6614;SDS011;3343;42.896;23.912;2023-03-31T11:45:57;3.72;;;1.45;;
6614;SDS011;3343;42.896;23.912;2023-03-31T11:48:30;1.45;;;1.20;;
6614;SDS011;3343;42.896;23.912;2023-03-31T11:51:04;1.42;;;1.33;;
6614;SDS011;3343;42.896;23.912;2023-03-31T11:53:37;3.03;;;1.85;;
6614;SDS011;3343;42.896;23.912;2023-03-31T11:56:06;2.20;;;1.33;;
6614;SDS011;3343;42.896;23.912;2023-03-31T11:58:37;3.03;;;1.65;;
6614;SDS011;3343;42.896;23.912;2023-03-31T12:01:08;1.85;;;1.20;;
6614;SDS011;3343;42.896;23.912;2023-03-31T12:03:46;1.27;;;1.17;;
6614;SDS011;3343;42.896;23.912;2023-03-31T12:06:19;1.10;;;1.05;;
6614;SDS011;3343;42.896;23.912;2023-03-31T12:08:50;4.25;;;1.30;;
6614;SDS011;3343;42.896;23.912;2023-03-31T12:11:28;1.48;;;1.08;;
6614;SDS011;3343;42.896;23.912;2023-03-31T12:14:04;2.00;;;1.20;;
6614;SDS011;3343;42.896;23.912;2023-03-31T12:16:40;1.38;;;1.10;;
6614;SDS011;3343;42.896;23.912;2023-03-31T12:19:10;2.03;;;1.30;;
6614;SDS011;3343;42.896;23.912;2023-03-31T12:21:43;1.73;;;1.27;;
6614;SDS011;3343;42.896;23.912;2023-03-31T12:24:15;5.03;;;1.30;;
6614;SDS011;3343;42.896;23.912;2023-03-31T12:26:46;2.10;;;1.40;;
6614;SDS011;3343;42.896;23.912;2023-03-31T12:29:27;3.03;;;1.30;;
6614;SDS011;3343;42.896;23.912;2023-03-31T12:31:57;2.13;;;0.93;;
6614;SDS011;3343;42.896;23.912;2023-03-31T12:34:26;2.25;;;1.58;;
6614;SDS011;3343;42.896;23.912;2023-03-31T12:37:02;1.10;;;1.00;;
6614;SDS011;3343;42.896;23.912;2023-03-31T12:39:45;1.90;;;1.35;;
6614;SDS011;3343;42.896;23.912;2023-03-31T12:45:27;1.58;;;1.17;;
6614;SDS011;3343;42.896;23.912;2023-03-31T12:51:12;2.83;;;1.20;;
6614;SDS011;3343;42.896;23.912;2023-03-31T12:53:54;2.10;;;1.10;;
6614;SDS011;3343;42.896;23.912;2023-03-31T12:59:31;1.52;;;1.38;;
6614;SDS011;3343;42.896;23.912;2023-03-31T13:02:22;2.00;;;1.25;;
6614;SDS011;3343;42.896;23.912;2023-03-31T13:04:51;1.35;;;1.10;;
6614;SDS011;3343;42.896;23.912;2023-03-31T13:07:34;1.35;;;1.17;;
6614;SDS011;3343;42.896;23.912;2023-03-31T13:10:23;3.50;;;1.25;;
6614;SDS011;3343;42.896;23.912;2023-03-31T13:13:02;3.35;;;1.30;;
6614;SDS011;3343;42.896;23.912;2023-03-31T13:15:30;1.20;;;1.10;;
6614;SDS011;3343;42.896;23.912;2023-03-31T13:17:59;2.83;;;1.25;;
6614;SDS011;3343;42.896;23.912;2023-03-31T13:20:33;1.25;;;1.15;;
6614;SDS011;3343;42.896;23.912;2023-03-31T13:23:03;1.25;;;1.08;;
6614;SDS011;3343;42.896;23.912;2023-03-31T13:25:42;3.20;;;1.60;;
6614;SDS011;3343;42.896;23.912;2023-03-31T13:28:14;1.30;;;1.20;;
6614;SDS011;3343;42.896;23.912;2023-03-31T13:30:59;2.28;;;1.48;;
6614;SDS011;3343;42.896;23.912;2023-03-31T13:33:31;2.47;;;1.20;;
6614;SDS011;3343;42.896;23.912;2023-03-31T13:38:58;1.23;;;1.08;;
6614;SDS011;3343;42.896;23.912;2023-03-31T13:41:36;1.60;;;1.23;;
6614;SDS011;3343;42.896;23.912;2023-03-31T13:50:31;1.65;;;1.02;;
6614;SDS011;3343;42.896;23.912;2023-03-31T13:53:07;1.42;;;0.90;;
6614;SDS011;3343;42.896;23.912;2023-03-31T13:55:53;1.65;;;1.13;;
6614;SDS011;3343;42.896;23.912;2023-03-31T14:01:35;1.20;;;1.10;;
6614;SDS011;3343;42.896;23.912;2023-03-31T14:04:15;2.67;;;1.23;;
6614;SDS011;3343;42.896;23.912;2023-03-31T14:07:07;1.65;;;1.30;;
6614;SDS011;3343;42.896;23.912;2023-03-31T14:09:39;2.47;;;1.35;;
6614;SDS011;3343;42.896;23.912;2023-03-31T14:12:21;2.17;;;1.48;;
6614;SDS011;3343;42.896;23.912;2023-03-31T14:14:58;2.05;;;1.23;;
6614;SDS011;3343;42.896;23.912;2023-03-31T14:17:25;2.15;;;1.50;;
6614;SDS011;3343;42.896;23.912;2023-03-31T14:19:57;2.80;;;1.10;;
6614;SDS011;3343;42.896;23.912;2023-03-31T14:22:51;4.75;;;1.48;;
6614;SDS011;3343;42.896;23.912;2023-03-31T14:25:30;2.17;;;1.25;;
6614;SDS011;3343;42.896;23.912;2023-03-31T14:28:11;2.38;;;1.23;;
6614;SDS011;3343;42.896;23.912;2023-03-31T14:30:47;9.38;;;1.40;;
6614;SDS011;3343;42.896;23.912;2023-03-31T14:33:25;1.80;;;1.15;;
6614;SDS011;3343;42.896;23.912;2023-03-31T14:36:00;1.70;;;1.10;;
6614;SDS011;3343;42.896;23.912;2023-03-31T14:38:33;2.67;;;1.52;;
6614;SDS011;3343;42.896;23.912;2023-03-31T14:41:01;4.90;;;1.52;;
6614;SDS011;3343;42.896;23.912;2023-03-31T14:43:29;3.22;;;1.50;;
6614;SDS011;3343;42.896;23.912;2023-03-31T14:45:58;4.82;;;1.30;;
6614;SDS011;3343;42.896;23.912;2023-03-31T14:48:27;1.98;;;1.42;;
6614;SDS011;3343;42.896;23.912;2023-03-31T14:50:55;2.00;;;1.45;;
6614;SDS011;3343;42.896;23.912;2023-03-31T14:53:24;2.67;;;1.65;;
6614;SDS011;3343;42.896;23.912;2023-03-31T14:55:56;1.95;;;1.30;;
6614;SDS011;3343;42.896;23.912;2023-03-31T14:58:28;1.83;;;1.30;;
6614;SDS011;3343;42.896;23.912;2023-03-31T15:00:59;1.77;;;1.50;;
6614;SDS011;3343;42.896;23.912;2023-03-31T15:03:27;1.75;;;1.58;;
6614;SDS011;3343;42.896;23.912;2023-03-31T15:05:56;3.25;;;1.50;;
6614;SDS011;3343;42.896;23.912;2023-03-31T15:08:24;2.50;;;1.95;;
6614;SDS011;3343;42.896;23.912;2023-03-31T15:10:56;4.88;;;1.63;;
6614;SDS011;3343;42.896;23.912;2023-03-31T15:13:26;2.95;;;1.25;;
6614;SDS011;3343;42.896;23.912;2023-03-31T15:15:59;3.78;;;1.55;;
6614;SDS011;3343;42.896;23.912;2023-03-31T15:18:26;2.15;;;1.70;;
6614;SDS011;3343;42.896;23.912;2023-03-31T15:20:53;1.73;;;1.20;;
6614;SDS011;3343;42.896;23.912;2023-03-31T15:23:21;2.10;;;1.60;;
6614;SDS011;3343;42.896;23.912;2023-03-31T15:25:51;3.10;;;1.45;;
6614;SDS011;3343;42.896;23.912;2023-03-31T15:28:21;1.73;;;1.50;;
6614;SDS011;3343;42.896;23.912;2023-03-31T15:30:49;4.47;;;1.58;;
6614;SDS011;3343;42.896;23.912;2023-03-31T15:33:17;3.00;;;1.60;;
6614;SDS011;3343;42.896;23.912;2023-03-31T15:35:47;3.72;;;1.45;;
6614;SDS011;3343;42.896;23.912;2023-03-31T15:38:15;3.83;;;1.73;;
6614;SDS011;3343;42.896;23.912;2023-03-31T15:40:43;3.20;;;1.60;;
6614;SDS011;3343;42.896;23.912;2023-03-31T15:43:15;2.87;;;1.80;;
6614;SDS011;3343;42.896;23.912;2023-03-31T15:45:46;2.33;;;1.70;;
6614;SDS011;3343;42.896;23.912;2023-03-31T15:48:17;1.67;;;1.40;;
6614;SDS011;3343;42.896;23.912;2023-03-31T15:50:46;3.10;;;1.50;;
6614;SDS011;3343;42.896;23.912;2023-03-31T15:53:28;3.37;;;1.83;;
6614;SDS011;3343;42.896;23.912;2023-03-31T15:55:58;2.90;;;1.70;;
6614;SDS011;3343;42.896;23.912;2023-03-31T16:01:20;3.67;;;1.80;;
6614;SDS011;3343;42.896;23.912;2023-03-31T16:03:50;1.30;;;1.20;;
6614;SDS011;3343;42.896;23.912;2023-03-31T16:06:20;2.47;;;1.30;;
6614;SDS011;3343;42.896;23.912;2023-03-31T16:08:55;6.33;;;2.10;;
6614;SDS011;3343;42.896;23.912;2023-03-31T16:11:25;2.17;;;1.60;;